Weather at Toyota of Dallas Inc Heliport

Public forecast

Using degrees Fahrenheit for public forecast. Weather courtesy of forecast.io.

Closest aviation weather report (METAR) to Toyota of Dallas Inc Heliport

Closest report is Dallas Love Field, 4.1 nm (7.7 km) SSE.

2024/05/19 18:53 (retrieved 54 minutes ago)

KDAL 191853Z 17010G19KT 10SM SCT045 32/21 A2991 RMK AO2 SLP122 T03170206

Closest aviation forecast (TAF) to Toyota of Dallas Inc Heliport

Closest forecast is Dallas Love Field, 4.1 nm (7.7 km) SSE.

2024/05/19 18:06 Ammendment (retrieved 2 hours ago)

TAF AMD KDAL 191802Z 1918/2018 16015KT P6SM SCT035 FM201600 17013G23KT P6SM FEW250